Date,TemperatureHighF,TemperatureAvgF,TemperatureLowF,DewpointHighF,DewpointAvgF,DewpointLowF,HumidityHigh,HumidityAvg,HumidityLow,PressureMaxIn,PressureMinIn,WindSpeedMaxMPH,WindSpeedAvgMPH,GustSpeedMaxMPH,PrecipitationSumIn
2013-1-1,47.2,32.7,25.8,33.8,27.2,22.4,99,81,49,30.33,30.27,4,0,4,0.00
2013-1-2,55.4,33.6,25.0,33.6,25.7,20.8,91,75,32,30.33,30.21,4,0,4,0.00
2013-1-3,53.0,33.7,25.4,36.7,28.0,23.4,94,82,42,30.33,30.24,2,0,3,0.00
2013-1-4,55.6,34.7,27.2,35.2,26.7,22.9,89,76,30,30.35,30.26,1,0,3,0.00
2013-1-5,51.5,42.0,34.4,37.9,33.6,27.7,93,74,40,30.32,30.13,7,0,7,0.00
2013-1-6,42.9,37.6,31.1,39.9,35.4,29.0,94,92,86,30.20,30.11,6,0,6,0.11
2013-1-7,52.9,38.1,28.9,45.3,34.4,27.1,95,87,53,30.28,30.18,4,0,4,0.00
2013-1-8,58.4,41.7,33.4,48.7,38.3,31.6,95,88,63,30.26,30.15,2,0,2,0.00
2013-1-9,48.1,37.5,31.5,39.0,34.9,29.7,94,91,64,30.21,29.88,14,0,14,0.55
2013-1-10,36.1,29.8,25.4,32.8,27.8,23.4,94,92,84,30.18,30.00,5,0,5,0.15
2013-1-11,31.4,24.4,21.9,29.8,22.4,19.8,94,92,90,30.27,30.18,2,0,2,0.03
2013-1-12,39.9,26.3,17.0,25.9,19.5,14.3,91,77,40,30.27,30.20,6,0,6,0.01
2013-1-13,40.9,27.1,15.4,21.5,14.3,9.5,92,61,34,30.31,30.23,6,0,6,0.00
2013-1-14,46.5,29.4,17.7,22.8,16.2,9.2,77,60,30,30.45,30.29,6,0,6,0.00
2013-1-15,47.7,32.5,24.3,31.6,24.9,20.0,92,75,48,30.53,30.45,2,0,2,0.00
2013-1-16,57.4,36.2,27.4,34.6,27.6,23.3,87,73,39,30.50,30.34,2,0,2,0.00
2013-1-17,65.8,36.9,27.3,35.6,26.0,19.7,92,68,29,30.35,30.25,1,0,1,0.00
2013-1-18,63.2,37.4,27.7,36.2,27.0,23.5,87,71,26,30.32,30.23,2,0,5,0.00
2013-1-19,63.9,40.1,28.1,39.0,29.0,22.7,84,68,27,30.34,30.25,2,0,3,0.00
2013-1-20,63.9,41.9,29.2,39.1,29.6,25.3,92,67,24,30.31,30.18,3,0,3,0.00
2013-1-21,62.9,40.6,28.9,39.1,29.4,22.2,89,68,28,30.26,30.20,5,0,5,0.00
2013-1-22,67.0,40.7,29.7,38.5,28.2,21.9,83,65,23,30.23,30.10,7,0,7,0.00
2013-1-23,60.7,48.0,38.3,42.2,32.8,25.0,93,60,28,30.14,30.02,14,0,14,0.11
2013-1-24,51.8,47.5,43.6,50.4,45.8,41.6,98,94,92,30.20,30.08,3,0,3,0.05
2013-1-25,54.7,49.5,47.4,53.0,47.9,45.9,99,94,87,30.20,30.03,3,0,5,0.17
2013-1-26,50.9,44.7,35.8,48.5,42.4,33.1,99,92,83,30.03,29.89,10,0,10,0.22
2013-1-27,41.5,34.4,29.2,37.9,32.0,27.3,100,91,76,30.18,29.99,7,0,7,0.32
2013-1-28,48.4,34.2,26.5,35.0,29.0,24.8,94,83,52,30.32,30.16,6,0,6,0.01
2013-1-29,50.9,36.8,28.7,40.6,32.2,26.4,94,85,58,30.40,30.30,5,0,5,0.00
2013-1-30,62.9,41.5,31.3,46.9,36.6,29.5,95,84,49,30.40,30.30,4,0,4,0.00
2013-1-31,61.4,41.4,31.5,44.3,36.2,29.7,95,83,50,30.35,30.26,7,0,7,0.00
2013-2-1,64.3,43.6,32.8,46.5,36.1,31.0,95,78,40,30.29,30.19,5,0,5,0.00
2013-2-2,63.0,45.2,35.5,46.9,37.3,33.1,92,77,35,30.32,30.25,9,0,9,0.00
2013-2-3,62.5,42.3,31.5,42.9,34.7,28.4,92,77,35,30.25,30.15,5,0,5,0.00
2013-2-4,63.2,42.4,31.9,44.5,34.9,28.3,95,77,41,30.20,30.10,6,0,6,0.00
2013-2-5,56.1,40.5,31.5,44.2,36.0,29.1,94,85,58,30.16,30.02,7,0,7,0.00
2013-2-6,54.2,37.5,27.4,39.3,30.4,25.4,94,78,40,30.19,30.13,4,0,7,0.00
2013-2-7,40.2,37.7,33.4,36.8,34.2,31.1,93,87,75,30.18,29.98,15,0,15,0.19
2013-2-8,42.7,30.4,25.7,33.2,26.3,20.2,94,85,64,30.01,29.94,5,0,6,0.02
2013-2-9,49.7,32.9,21.8,30.1,23.0,18.0,92,69,35,30.16,30.01,11,0,11,0.00
2013-2-10,55.6,36.1,25.4,30.8,24.0,20.4,89,65,30,30.17,30.07,10,0,10,0.00
2013-2-11,55.8,37.6,25.1,32.3,24.9,19.2,81,63,31,30.30,30.15,10,0,10,0.00
2013-2-12,53.2,35.2,27.2,35.8,28.1,22.4,89,76,50,30.41,30.30,6,0,6,0.00
2013-2-13,59.7,40.2,28.3,41.8,33.5,26.0,93,79,48,30.38,30.26,6,0,6,0.00
2013-2-14,70.6,47.5,33.2,43.0,34.6,28.1,87,65,26,30.30,30.20,7,0,7,0.00
2013-2-15,65.4,45.3,32.4,40.0,31.9,25.1,85,63,28,30.32,30.26,6,0,6,0.00
2013-2-16,64.8,44.5,32.3,46.1,35.3,28.3,88,73,37,30.32,30.08,3,0,5,0.00
2013-2-17,48.2,35.5,31.8,38.5,32.0,29.4,92,87,69,30.08,29.99,0,0,0,0.00
2013-2-18,56.7,41.4,31.1,40.6,34.4,28.5,93,78,47,30.03,29.89,13,0,13,0.00
2013-2-19,37.9,33.2,28.4,32.9,30.3,26.5,93,89,81,29.91,29.71,18,0,18,0.12
2013-2-20,46.3,30.6,24.2,36.9,27.2,22.2,93,88,59,30.08,29.81,4,0,4,0.44
2013-2-21,51.3,35.7,26.7,33.4,27.9,24.7,94,76,38,30.21,30.07,9,0,9,0.08
2013-2-22,54.4,36.0,26.9,36.8,28.1,23.8,89,76,43,30.27,30.20,6,0,6,0.00
2013-2-23,49.7,39.9,28.7,36.2,28.7,19.5,89,66,41,30.24,30.13,15,0,15,0.00
2013-2-24,58.6,34.8,24.5,25.4,20.5,13.3,81,62,21,30.29,30.21,4,0,4,0.00
2013-2-25,54.8,38.7,28.7,33.4,27.9,23.7,86,68,40,30.32,30.21,9,0,9,0.00
2013-2-26,64.3,41.4,27.9,28.7,22.1,16.0,92,51,20,30.27,30.19,7,0,7,0.00
2013-2-27,55.4,35.4,28.7,34.8,24.7,15.8,75,65,43,30.42,30.26,1,0,1,0.00
2013-2-28,62.4,46.3,33.1,42.2,35.1,27.8,85,67,41,30.47,30.39,7,0,7,0.00
2013-3-1,65.1,43.7,35.5,47.1,38.9,32.9,94,84,52,30.47,30.30,3,0,3,0.00
2013-3-2,68.5,51.6,39.8,47.6,40.4,36.5,97,70,33,30.31,30.08,9,0,9,0.00
2013-3-3,53.5,49.3,41.9,47.5,43.2,38.4,92,80,68,30.09,30.00,6,0,6,0.04
2013-3-4,61.9,45.5,33.6,45.6,38.9,31.2,94,80,48,30.12,30.04,9,0,9,0.00
2013-3-5,53.2,45.6,39.4,43.7,39.2,35.3,91,79,55,30.05,29.82,14,0,14,0.04
2013-3-6,42.6,37.9,32.2,39.6,35.3,30.0,93,91,84,30.06,29.80,22,2,22,0.91
2013-3-7,48.1,38.1,30.7,38.0,33.9,28.9,99,85,64,30.03,29.89,6,0,6,0.01
2013-3-8,57.1,40.4,28.6,39.3,33.5,26.6,94,79,39,30.04,29.83,10,0,10,0.05
2013-3-9,63.4,43.9,31.6,37.6,32.3,23.9,93,69,24,30.35,30.04,9,0,9,0.00
2013-3-10,61.9,43.6,29.3,45.2,32.9,22.3,89,68,34,30.37,30.29,8,0,8,0.00
2013-3-11,67.8,44.7,33.2,45.4,37.0,31.0,94,78,40,30.31,30.17,7,0,7,0.00
2013-3-12,40.7,38.9,37.4,37.7,36.4,35.2,92,91,89,30.16,30.14,0,0,0,0.00
2013-3-16,68.4,51.3,36.9,44.9,38.1,31.0,93,65,27,30.08,30.01,9,0,9,0.00
2013-3-17,63.9,41.1,33.5,41.0,33.1,30.0,92,76,33,30.11,30.04,7,0,7,0.00
2013-3-18,66.0,48.1,33.6,41.8,34.9,29.6,87,64,28,30.12,30.05,9,0,9,0.00
2013-3-19,63.1,50.4,39.8,47.5,41.5,33.3,92,74,40,30.12,30.05,11,0,11,0.32
2013-3-20,49.2,46.9,44.9,47.5,45.2,43.0,94,94,92,30.10,30.04,14,1,14,1.23
2013-3-21,57.6,46.4,37.2,48.1,41.7,34.3,95,85,57,30.09,29.99,9,0,9,0.00
2013-3-22,59.6,37.0,27.4,34.7,29.4,18.4,91,79,24,30.12,30.02,12,0,12,0.00
2013-3-23,62.9,43.5,27.7,38.5,28.7,21.3,80,59,23,30.14,30.07,6,0,7,0.00
2013-3-24,66.4,55.0,32.9,41.3,36.6,28.8,89,53,35,30.12,30.00,4,0,10,0.00
2013-3-25,67.0,49.5,36.1,43.6,38.0,32.9,91,68,36,30.01,29.89,12,0,12,0.00
2013-3-26,63.9,51.1,40.5,44.0,40.2,36.0,85,68,44,29.96,29.89,13,0,13,0.00
2013-3-27,64.5,52.1,42.5,47.9,43.3,38.2,88,73,49,29.99,29.92,18,0,18,0.00
2013-3-28,59.0,50.1,42.6,48.8,44.4,39.6,90,81,61,30.11,29.98,5,0,5,0.01
2013-3-29,72.2,51.6,38.4,49.8,41.9,36.3,94,73,36,30.14,30.05,8,0,8,0.00
2013-3-30,75.5,56.4,42.8,51.5,45.5,39.3,91,71,33,30.08,29.95,12,0,12,0.06
2013-3-31,55.0,49.4,44.0,50.7,46.7,41.8,94,90,73,30.06,29.96,10,0,10,0.70
2013-4-1,54.5,46.8,40.0,50.4,44.5,38.0,94,92,75,30.17,30.05,6,0,6,0.57
2013-4-2,64.8,47.1,35.4,50.0,41.7,33.7,95,83,54,30.18,30.10,7,0,7,0.00
2013-4-3,69.5,52.6,40.2,54.3,46.6,38.1,94,81,51,30.15,30.00,8,0,9,0.00
2013-4-4,51.8,49.1,44.6,50.1,47.2,41.7,94,93,82,30.10,29.95,7,0,11,0.76
2013-4-5,60.7,50.5,44.1,49.9,46.2,42.5,95,86,61,30.14,30.08,12,0,12,0.00
2013-4-6,58.4,50.7,46.9,49.4,45.9,43.3,92,84,65,30.16,30.08,7,0,7,0.02
2013-4-7,59.8,50.8,41.5,48.0,44.7,38.8,90,80,60,30.12,29.73,19,1,19,0.13
2013-4-8,60.2,45.6,37.0,40.6,35.8,30.0,94,72,33,30.03,29.70,12,0,12,0.23
2013-4-9,69.5,49.0,31.2,37.0,31.2,25.0,88,56,22,30.16,30.02,12,0,12,0.00
2013-4-10,76.8,50.1,38.4,50.7,37.8,32.0,83,65,35,30.21,29.97,12,0,12,0.00
2013-4-11,69.5,56.4,45.6,49.1,44.3,39.0,92,66,36,29.98,29.80,10,0,10,0.00
2013-4-12,73.6,51.8,39.8,50.0,38.1,33.8,84,63,28,29.89,29.80,6,0,9,0.00
2013-4-13,71.0,54.6,42.0,47.0,40.6,36.6,86,62,35,29.87,29.78,9,0,9,0.00
2013-4-14,64.8,49.7,37.4,42.3,35.2,25.1,84,61,24,29.84,29.73,11,0,11,0.00
2013-4-15,52.2,45.3,37.6,39.0,32.2,23.1,84,61,34,29.88,29.74,12,0,12,0.00
2013-4-16,57.8,41.0,29.9,31.7,26.7,19.8,87,61,25,30.19,29.88,11,0,14,0.00
2013-4-17,64.3,43.2,29.0,29.7,24.0,16.6,76,52,20,30.29,30.19,10,0,10,0.00
2013-4-18,67.5,49.0,31.2,38.9,30.5,22.7,74,52,27,30.28,30.23,11,0,11,0.00
2013-4-19,72.1,52.5,38.2,45.5,38.6,33.2,84,62,36,30.25,30.09,11,0,11,0.00
2013-4-20,74.3,56.0,40.9,45.3,40.1,35.2,87,59,32,30.10,29.98,10,0,10,0.00
2013-4-21,78.4,58.6,41.8,51.1,41.6,36.0,86,57,28,30.04,29.96,12,0,12,0.00
2013-4-22,80.0,57.6,43.9,48.8,41.1,31.8,86,61,20,29.99,29.86,11,0,11,0.00
2013-4-23,79.2,60.1,44.5,43.3,33.9,23.5,65,40,20,29.91,29.83,4,0,8,0.00
2013-4-24,83.1,61.2,43.3,40.1,33.1,25.5,74,41,14,29.88,29.77,6,0,13,0.00
2013-4-25,72.8,55.3,41.0,49.9,37.1,24.9,83,52,36,30.08,29.84,9,0,9,0.00
2013-4-26,70.5,45.8,42.5,50.4,41.5,39.5,92,86,46,30.17,30.08,3,0,3,0.00
2013-4-27,81.4,55.5,45.0,53.8,46.3,41.7,92,75,28,30.18,30.05,7,0,7,0.00
2013-4-28,81.0,60.8,45.3,54.1,46.7,39.2,84,63,31,30.05,29.88,9,0,9,0.00
2013-4-29,80.3,64.5,48.9,56.6,48.3,44.2,91,60,30,29.89,29.74,10,0,10,0.00
2013-4-30,79.0,66.6,46.5,51.0,39.9,20.5,91,42,22,29.87,29.70,10,0,11,0.00
2013-5-1,85.0,64.4,48.2,39.4,28.2,17.5,57,27,13,30.11,29.87,10,0,10,0.00
2013-5-2,85.2,63.3,44.8,48.4,36.1,17.8,62,39,22,30.16,30.08,7,0,7,0.00
2013-5-3,81.7,67.4,46.2,52.8,45.6,37.8,81,49,27,30.09,29.80,7,0,7,0.00
2013-5-4,84.5,64.6,50.4,45.7,37.8,28.0,62,38,22,29.81,29.52,10,0,10,0.00
2013-5-5,67.9,57.2,48.7,48.1,43.6,36.2,82,61,44,29.79,29.50,9,0,9,0.00
2013-5-6,59.1,52.4,48.5,51.5,47.6,44.2,93,84,64,29.93,29.78,4,0,4,0.54
2013-5-7,54.0,51.8,48.8,52.0,49.5,45.9,94,92,88,30.02,29.93,1,0,3,0.23
2013-5-8,61.9,53.1,51.0,54.4,50.5,49.2,95,91,70,30.10,30.01,5,0,5,0.03
2013-5-9,73.5,57.9,45.3,59.4,51.8,43.1,94,82,55,30.11,30.03,6,0,6,0.00
2013-5-10,81.1,68.9,49.7,63.8,58.1,47.6,94,71,44,30.12,30.04,7,0,7,0.00
2013-5-11,84.3,66.4,52.3,64.9,57.6,50.0,94,76,43,30.09,30.02,6,0,6,0.00
2013-5-12,87.2,69.1,54.8,63.0,52.7,45.5,93,62,25,30.08,29.98,9,0,9,0.00
2013-5-13,88.1,68.0,51.5,58.2,45.6,37.1,83,52,18,30.02,29.90,13,0,13,0.00
2013-5-14,83.0,66.4,50.1,58.2,50.3,41.4,79,59,29,29.90,29.83,10,0,10,0.00
2013-5-15,74.7,62.0,52.4,53.8,49.4,44.2,87,66,36,29.93,29.84,11,0,12,0.00
2013-5-16,65.8,57.9,52.1,51.2,48.0,45.7,86,70,52,29.92,29.86,13,0,13,0.02
2013-5-17,68.3,56.1,45.7,49.0,43.6,39.9,90,65,41,30.02,29.87,10,0,10,0.00
2013-5-18,73.0,54.8,41.0,47.4,42.4,37.4,90,67,34,30.10,30.01,9,0,9,0.00
2013-5-19,76.2,58.6,44.7,53.2,43.5,36.6,86,61,32,30.09,29.98,11,0,11,0.00
2013-5-20,82.8,62.5,43.2,49.7,41.7,34.1,75,50,25,30.03,29.90,9,0,9,0.00
2013-5-21,75.0,61.7,50.6,47.8,42.0,31.4,75,51,22,29.92,29.80,14,1,14,0.00
2013-5-22,62.2,48.3,33.0,41.1,29.8,20.0,83,53,21,29.88,29.83,9,0,9,0.00
2013-5-23,64.5,53.8,33.7,41.0,34.6,25.3,83,51,32,30.00,29.86,12,0,12,0.00
2013-5-24,60.2,39.8,36.1,42.2,33.8,31.5,90,79,44,29.98,29.95,4,0,4,0.00
2013-5-25,73.3,49.6,40.6,46.0,38.1,35.2,86,68,29,29.97,29.91,11,0,11,0.00
2013-5-26,70.5,55.4,42.3,50.4,42.4,37.8,87,64,38,30.07,29.95,11,0,11,0.00
2013-5-27,59.1,52.1,43.5,52.2,46.4,39.6,92,81,64,30.06,29.96,10,0,10,0.15
2013-5-28,69.1,57.2,50.1,53.8,50.3,47.5,94,80,49,29.97,29.87,7,0,7,0.04
2013-5-29,56.2,53.4,51.8,53.4,50.5,48.4,93,90,85,29.89,29.83,10,0,10,0.12
2013-6-3,89.7,74.3,54.3,60.0,52.4,45.1,76,50,27,29.74,29.63,4,0,9,0.00
2013-6-4,86.5,70.2,54.5,62.4,55.6,48.8,88,63,37,29.83,29.72,4,0,7,0.00
2013-6-5,87.1,75.9,55.4,65.0,60.3,52.0,92,61,42,29.88,29.80,5,0,5,0.00
2013-6-6,90.2,78.9,57.4,68.6,62.2,54.2,93,59,41,29.84,29.77,5,0,5,0.00
2013-6-7,98.7,78.9,54.6,68.3,56.5,42.7,88,54,17,29.81,29.71,4,0,5,0.00
2013-6-8,102.0,78.8,62.9,68.8,59.0,52.5,77,55,27,29.72,29.62,10,0,10,0.00
2013-6-9,87.8,75.1,63.3,66.6,58.6,51.1,76,58,39,29.73,29.63,10,0,10,0.00
2013-6-10,67.5,62.2,53.1,58.8,52.1,49.0,89,70,56,29.90,29.67,11,0,11,0.07
2013-6-11,81.5,64.2,48.5,55.5,51.1,45.7,93,67,35,29.96,29.86,12,0,12,0.00
2013-6-12,80.9,65.4,49.6,53.5,45.7,34.6,92,55,21,29.90,29.84,13,0,13,0.00
2013-6-13,77.8,61.2,45.4,50.9,41.6,35.4,83,52,23,30.02,29.89,10,0,10,0.00
2013-6-14,84.5,64.9,46.8,51.5,43.6,35.3,68,49,27,29.99,29.80,6,0,6,0.00
2013-6-15,86.3,58.0,48.3,52.5,43.0,35.0,87,62,18,29.92,29.79,9,0,9,0.00
2013-6-16,85.4,65.8,49.1,54.4,44.4,38.9,79,50,23,30.00,29.90,9,0,9,0.00
2013-6-17,84.2,60.2,50.9,52.4,45.3,42.8,84,61,26,30.00,29.91,11,0,11,0.00
2013-6-18,72.7,61.1,50.1,50.6,45.2,42.5,80,57,38,29.91,29.83,13,0,13,0.00
2013-6-19,70.3,56.6,43.2,46.9,41.4,35.3,87,60,31,29.99,29.88,12,0,12,0.00
2013-6-20,76.0,59.0,42.1,48.9,40.9,36.4,85,55,26,29.98,29.91,9,0,9,0.00
2013-6-21,80.2,63.6,45.8,50.4,43.7,37.3,76,52,30,29.95,29.88,9,0,9,0.00
2013-6-22,85.5,66.2,47.8,52.6,45.1,40.5,84,51,24,29.90,29.80,9,0,9,0.00
2013-6-23,74.2,61.5,52.0,55.8,49.3,39.9,81,65,46,29.80,29.70,7,0,9,0.00
2013-6-24,60.5,55.9,53.4,54.8,52.7,51.6,94,89,81,29.90,29.72,6,0,11,0.81
2013-6-25,62.3,57.0,53.3,60.8,55.5,51.6,95,94,94,29.99,29.88,10,0,14,0.85
2013-6-26,82.2,68.2,59.9,67.0,61.5,58.0,95,81,49,30.02,29.96,10,0,10,0.00
2013-6-27,89.3,71.9,55.8,68.2,61.9,53.6,95,74,36,30.04,29.98,5,0,6,0.00
2013-6-28,94.8,73.4,57.3,70.0,59.6,53.7,94,68,29,30.01,29.87,4,0,5,0.00
2013-6-29,98.0,77.2,60.1,69.5,59.7,53.5,87,59,27,29.91,29.77,6,0,6,0.00
2013-6-30,97.3,73.1,60.3,68.2,58.8,54.1,86,65,27,29.80,29.72,5,0,5,0.00
2013-7-1,98.5,76.9,62.9,72.3,61.1,54.1,85,62,26,29.81,29.74,5,0,5,0.00
2013-7-2,100.1,81.8,67.7,75.6,66.6,58.0,80,63,34,29.82,29.76,9,0,10,0.00
2013-7-3,99.3,80.4,65.0,72.6,64.0,57.4,83,61,33,29.82,29.69,6,0,6,0.00
2013-7-4,97.9,79.7,65.8,73.5,64.1,55.6,86,63,29,29.72,29.59,5,0,5,0.00
2013-7-5,91.2,76.3,62.3,60.2,54.2,47.5,79,50,25,29.65,29.57,15,0,15,0.00
2013-7-6,90.2,71.1,55.3,58.5,51.1,45.5,83,54,26,29.72,29.64,13,0,13,0.00
2013-7-7,91.3,71.7,54.8,57.4,50.7,44.5,80,52,25,29.79,29.71,9,0,10,0.00
2013-7-8,92.2,64.0,55.4,59.7,50.5,46.2,80,65,22,29.92,29.79,9,0,9,0.00
2013-7-9,94.8,73.6,55.9,60.0,49.0,43.1,77,48,19,30.00,29.92,11,0,11,0.00
2013-7-10,94.3,74.7,57.1,58.4,49.0,41.9,71,44,21,29.93,29.81,13,0,13,0.00
2013-7-11,91.7,72.2,56.5,55.2,46.1,40.3,76,43,19,29.85,29.78,8,0,9,0.00
2013-7-12,89.3,69.2,53.0,54.3,44.5,37.6,75,45,21,29.86,29.81,10,0,11,0.00
2013-7-13,91.2,70.4,52.1,52.8,46.0,39.5,74,46,19,29.91,29.85,10,0,10,0.00
2013-7-14,92.7,72.2,55.0,60.4,49.8,43.9,78,49,24,29.91,29.83,6,0,6,0.00
2013-7-15,90.1,71.7,57.2,60.0,51.5,47.1,78,52,27,29.84,29.72,7,0,7,0.00
2013-7-16,86.3,69.0,55.4,54.7,47.1,40.5,75,50,22,29.94,29.75,11,0,11,0.00
2013-7-17,89.4,68.1,50.5,56.2,47.8,40.8,83,52,26,30.02,29.93,7,0,7,0.00
2013-7-18,90.7,70.6,52.6,58.6,47.7,40.9,83,49,24,30.00,29.89,7,0,7,0.00
2013-7-19,95.8,73.8,55.9,61.2,51.2,40.5,80,49,22,29.89,29.76,6,0,6,0.00
2013-7-20,96.7,75.1,59.5,66.4,55.0,48.3,83,53,27,29.79,29.65,9,0,9,0.00
2013-7-21,96.0,80.1,62.1,65.5,58.7,51.7,75,51,31,29.78,29.67,7,0,7,0.00
2013-7-22,90.5,74.7,59.9,60.2,52.3,44.3,80,48,26,29.91,29.77,10,0,10,0.00
2013-7-23,89.9,75.1,63.2,60.0,53.1,45.3,76,49,28,29.92,29.83,10,0,10,0.00
2013-7-24,92.4,75.4,60.0,61.5,56.6,51.2,81,55,31,29.91,29.84,6,0,6,0.00
2013-7-25,94.8,77.4,62.2,66.2,59.0,54.7,85,57,30,29.92,29.85,4,0,6,0.00
2013-7-26,95.5,78.8,66.4,65.8,59.8,56.5,82,55,30,29.96,29.88,7,0,7,0.00
2013-7-27,93.5,75.9,61.5,62.0,56.6,52.7,81,55,30,29.92,29.76,9,0,9,0.00
2013-7-28,93.0,75.4,60.8,61.3,54.1,48.9,78,51,26,29.78,29.69,12,0,12,0.00
2013-7-29,88.8,71.9,57.4,57.5,47.3,39.1,77,46,19,29.91,29.72,13,0,14,0.00
2013-7-30,89.8,69.8,52.1,53.3,46.7,40.7,74,48,21,30.02,29.91,10,0,10,0.00
2013-7-31,89.2,70.5,55.6,56.4,47.0,42.3,76,47,25,29.99,29.90,10,0,10,0.00
2013-8-1,83.8,67.4,53.8,51.9,42.9,37.1,61,44,24,29.95,29.89,9,0,11,0.00
2013-8-2,87.5,59.3,48.6,49.3,41.8,35.8,72,56,22,29.92,29.85,9,0,9,0.00
2013-8-3,88.8,68.4,50.9,53.2,46.4,41.5,80,50,23,29.90,29.85,7,0,7,0.00
2013-8-4,89.3,67.5,53.5,55.4,48.2,44.2,81,54,23,29.92,29.87,10,0,10,0.00
2013-8-5,88.5,61.6,52.6,57.3,46.6,43.5,80,61,27,29.94,29.87,10,0,10,0.00
2013-8-6,88.5,68.7,52.8,54.6,47.5,44.1,80,51,25,29.93,29.88,5,0,5,0.00
2013-8-7,81.8,67.2,55.3,56.4,48.5,41.4,77,53,27,29.97,29.92,11,0,11,0.00
2013-8-8,81.2,63.3,48.6,54.2,47.7,43.0,86,60,32,29.95,29.88,9,0,9,0.00
2013-8-9,82.7,63.9,50.3,53.5,46.9,43.0,81,57,32,29.93,29.85,11,0,11,0.00
2013-8-10,83.0,64.7,49.2,54.1,47.8,43.7,86,58,29,29.97,29.92,11,0,11,0.00
2013-8-11,84.8,67.2,49.9,53.8,48.1,44.0,85,55,29,29.98,29.89,10,0,10,0.00
2013-8-12,87.0,66.4,51.7,57.3,48.6,44.1,83,57,26,29.94,29.89,9,0,10,0.00
2013-8-13,90.8,69.0,51.8,59.5,47.0,42.8,83,50,22,29.95,29.88,7,0,7,0.00
2013-8-14,92.3,70.1,52.5,58.8,46.4,41.5,80,47,22,29.92,29.85,9,0,9,0.00
2013-8-15,94.1,71.1,53.5,57.6,46.4,40.3,76,46,16,29.91,29.86,9,0,11,0.00
2013-8-16,94.9,71.9,53.0,57.3,45.6,39.7,72,45,16,29.94,29.89,10,0,10,0.00
2013-8-17,93.2,72.3,54.9,55.8,48.6,41.3,78,49,19,29.92,29.80,10,0,10,0.00
2013-8-18,97.2,74.5,58.0,61.9,53.7,45.9,74,51,25,29.84,29.77,6,0,6,0.00
2013-8-19,92.3,74.6,63.3,65.6,57.2,51.0,69,56,30,29.86,29.77,7,0,7,0.00
2013-8-20,93.8,78.1,66.3,65.9,58.8,53.0,79,54,33,29.81,29.72,8,0,8,0.00
2013-8-21,89.9,74.2,61.9,63.8,57.0,49.6,85,58,31,29.83,29.75,9,0,9,0.00
2013-8-22,90.1,73.0,57.3,57.1,50.6,45.3,82,50,23,29.85,29.79,11,0,11,0.00
2013-8-23,88.7,60.6,52.3,55.6,44.9,41.5,78,59,21,29.83,29.75,10,0,10,0.00
2013-8-24,86.0,66.9,52.6,52.4,47.0,42.9,74,52,29,29.82,29.76,14,0,14,0.00
2013-8-25,79.9,65.1,54.8,60.6,51.5,46.3,89,63,39,29.89,29.81,11,0,11,0.02
2013-8-26,85.2,65.7,52.2,56.9,51.4,47.0,91,64,33,29.94,29.86,10,0,10,0.00
2013-8-27,88.4,67.4,52.1,57.5,49.3,45.6,86,58,27,29.88,29.77,10,0,10,0.00
2013-8-28,89.4,70.0,55.0,55.6,49.4,45.8,79,51,27,29.87,29.77,11,0,11,0.00
2013-8-29,89.2,69.0,54.0,54.7,48.5,44.3,82,51,26,29.99,29.87,10,0,10,0.00
2013-8-30,93.2,69.5,52.3,57.2,47.2,42.4,83,50,21,30.01,29.90,9,0,9,0.00
2013-8-31,93.5,70.9,54.6,57.1,48.3,42.3,78,48,23,29.94,29.84,6,0,9,0.00
2013-9-1,87.5,71.6,59.3,58.4,52.6,47.5,74,53,28,29.87,29.81,9,0,9,0.00
2013-9-2,71.0,65.1,61.8,64.9,59.3,55.0,96,83,57,29.89,29.80,3,0,3,1.24
2013-9-3,80.2,66.1,59.0,65.0,60.5,56.4,95,83,54,29.95,29.86,7,0,7,0.00
2013-9-4,84.0,66.7,55.3,60.7,56.2,53.0,94,72,41,29.97,29.88,9,0,9,0.00
2013-9-5,81.8,64.4,53.1,54.3,49.6,42.9,91,63,27,29.96,29.86,8,0,14,0.00
2013-9-6,88.1,64.6,46.8,54.2,47.7,42.5,89,60,24,29.97,29.86,5,0,6,0.00
2013-9-7,90.6,68.3,52.8,60.9,50.2,46.2,86,57,26,29.89,29.81,5,0,10,0.00
2013-9-8,93.3,69.4,53.7,60.0,49.0,42.0,84,54,19,29.85,29.75,5,0,6,0.00
2013-9-9,94.8,71.9,55.6,56.5,49.5,44.6,75,49,24,29.79,29.66,6,0,11,0.00
2013-9-10,93.1,71.5,55.5,56.6,50.0,40.9,72,50,24,29.80,29.68,7,0,7,0.00
2013-9-11,79.1,66.1,56.3,60.2,54.6,49.5,83,68,46,29.91,29.80,7,0,7,0.00
2013-9-12,84.3,66.2,52.4,59.2,53.2,47.4,89,66,38,29.93,29.84,6,0,6,0.00
2013-9-13,87.1,69.4,56.1,62.3,56.3,51.3,87,66,39,29.87,29.70,6,0,7,0.00
2013-9-14,90.2,74.3,58.4,63.0,58.0,53.3,90,60,35,29.73,29.66,4,0,7,0.00
2013-9-15,83.2,66.0,53.2,53.3,46.7,37.1,85,55,23,29.81,29.67,7,0,10,0.00
2013-9-16,85.4,63.5,48.0,53.0,45.5,40.5,81,56,23,29.85,29.75,6,0,11,0.00
2013-9-17,74.3,63.9,50.3,52.4,48.4,42.5,80,58,38,29.85,29.70,13,0,18,0.00
2013-9-18,79.7,59.5,43.5,48.0,42.9,38.5,92,59,27,29.89,29.81,9,0,9,0.00
2013-9-19,85.5,62.1,46.5,49.7,42.0,36.0,76,52,25,29.86,29.77,7,0,7,0.00
2013-9-20,80.7,63.0,50.5,54.1,43.1,37.2,80,52,23,29.79,29.73,12,0,12,0.00
2013-9-21,58.8,52.8,47.3,53.1,49.9,45.3,93,90,80,29.87,29.73,13,0,13,0.92
2013-9-22,65.8,54.7,40.2,50.4,47.0,38.3,94,77,50,30.01,29.87,2,0,6,0.01
2013-9-23,75.2,56.4,43.0,53.7,47.4,40.8,94,75,43,30.03,29.95,7,0,7,0.00
2013-9-24,71.3,54.5,48.5,53.4,48.1,43.9,92,80,47,29.96,29.80,15,0,15,0.00
2013-9-25,62.3,51.4,41.2,48.2,40.8,32.9,91,69,39,29.85,29.79,9,0,9,0.00
2013-9-26,67.6,50.3,39.2,39.2,34.8,32.0,80,58,31,30.02,29.81,5,0,5,0.00
2013-9-27,69.7,51.2,37.1,42.4,36.0,31.2,82,59,30,30.11,30.02,6,0,10,0.00
2013-9-28,76.2,56.4,43.1,49.7,40.3,36.9,84,59,26,30.12,30.01,11,0,11,0.00
2013-9-29,70.8,60.8,53.3,53.8,46.5,36.8,83,60,47,30.06,30.00,13,1,15,0.00
2013-9-30,67.5,57.9,51.3,55.7,52.2,48.1,90,82,63,30.03,29.93,11,0,11,0.00
2013-10-1,71.3,54.1,46.0,54.8,48.5,43.5,94,83,50,29.98,29.92,9,0,9,0.00
2013-10-2,70.1,54.2,43.7,50.8,41.9,35.5,92,67,32,29.98,29.90,10,0,10,0.00
2013-10-3,70.7,51.2,35.2,36.9,30.9,24.3,85,51,20,30.10,29.97,7,0,7,0.00
2013-10-4,78.2,54.5,36.0,40.0,28.1,20.1,74,40,15,30.17,30.06,12,0,12,0.00
2013-10-5,75.7,54.5,39.3,37.8,29.5,20.0,68,41,19,30.24,30.16,9,0,9,0.00
2013-10-6,78.7,49.6,41.1,43.8,32.5,26.1,73,55,17,30.19,30.05,6,0,6,0.00
2013-10-7,77.3,56.2,41.5,42.7,31.3,26.1,66,42,19,30.05,29.90,11,0,11,0.00
2013-10-8,68.9,52.3,40.5,42.2,33.2,28.1,72,51,25,29.90,29.66,7,0,7,0.00
2013-10-9,66.8,48.9,42.2,39.9,35.8,33.4,74,62,34,29.75,29.54,10,0,10,0.00
2013-10-10,64.3,49.6,39.6,44.1,38.8,32.4,82,68,44,30.03,29.75,9,0,9,0.00
2013-10-11,67.9,50.3,38.6,45.6,39.1,35.5,92,69,38,30.08,30.00,3,0,3,0.00
2013-10-12,67.5,50.4,38.3,44.5,38.7,34.2,88,67,39,30.02,29.89,10,0,10,0.06
2013-10-13,66.1,48.4,38.2,47.8,41.2,35.8,93,79,39,30.08,29.90,13,0,13,0.01
2013-10-14,70.5,50.2,37.1,41.8,35.8,31.4,84,61,29,30.15,30.05,9,0,9,0.00
2013-10-15,76.9,53.0,38.2,36.9,31.1,24.3,76,48,17,30.09,30.00,4,0,6,0.00
2013-10-16,74.2,53.3,38.5,40.6,32.3,22.4,65,47,26,30.14,30.03,7,0,10,0.00
2013-10-17,73.6,53.2,39.1,42.4,34.2,30.3,77,53,22,30.11,30.00,6,0,6,0.00
2013-10-18,77.0,54.1,40.7,43.4,34.7,27.2,69,51,24,30.08,30.02,5,0,5,0.00
2013-10-19,78.3,55.2,41.6,44.2,36.4,33.0,75,53,23,30.11,30.05,11,0,11,0.00
2013-10-20,78.3,55.9,42.3,46.5,38.1,33.3,76,55,25,30.06,29.93,6,0,6,0.00
2013-10-21,77.3,48.7,42.6,43.2,36.1,32.2,74,64,25,30.01,29.94,6,0,6,0.00
2013-10-22,81.7,56.5,42.9,42.5,33.4,27.5,70,46,15,30.05,29.95,8,0,8,0.00
2013-10-23,79.6,56.2,42.2,40.6,31.0,25.0,61,41,18,29.97,29.89,5,0,6,0.00
2013-10-24,77.8,55.5,43.0,39.0,32.5,26.6,63,44,20,30.08,29.94,4,0,6,0.00
2013-10-25,76.1,47.1,40.8,40.9,31.1,27.3,66,56,18,30.17,30.07,6,0,6,0.00
2013-10-26,76.5,54.0,40.2,42.7,35.9,28.8,68,54,25,30.17,30.05,4,0,4,0.00
2013-10-27,72.3,53.7,41.1,40.4,33.9,29.1,89,50,27,30.05,29.55,18,1,19,0.35
2013-10-28,45.5,42.3,39.0,42.7,39.9,36.2,93,91,88,29.87,29.55,7,0,7,0.12
2013-10-29,46.7,43.3,35.7,43.9,41.0,33.5,93,91,87,30.06,29.87,6,0,6,0.02
2013-10-30,56.9,41.6,31.9,43.5,35.7,30.0,94,81,52,30.19,30.06,8,0,8,0.01
2013-10-31,64.8,45.4,33.3,45.3,38.0,31.0,93,78,45,30.22,30.13,4,0,6,0.00
2013-11-1,71.3,49.1,37.0,47.2,39.0,34.6,93,73,32,30.22,30.08,4,0,5,0.00
2013-11-2,67.0,49.5,37.3,43.9,38.2,31.7,85,68,38,30.08,29.91,7,0,10,0.00
2013-11-3,57.8,44.8,35.1,45.5,34.4,27.6,93,70,37,29.99,29.89,4,0,5,0.00
2013-11-4,62.6,45.6,32.6,31.2,27.2,21.5,81,53,23,30.12,29.88,3,0,7,0.00
2013-11-5,64.5,43.9,30.8,38.4,28.8,21.3,74,58,28,30.29,30.11,7,0,7,0.00
2013-11-6,67.0,47.5,36.1,43.3,35.8,30.1,84,66,36,30.32,30.24,5,0,5,0.00
2013-11-7,70.8,51.9,41.4,40.4,33.8,29.1,73,54,22,30.24,30.09,9,0,9,0.00
2013-11-8,70.1,50.9,37.6,40.4,34.3,26.6,78,55,29,30.12,29.99,6,0,6,0.00
2013-11-9,70.3,49.0,38.0,45.7,37.3,32.9,84,67,35,30.08,30.02,7,0,7,0.00
2013-11-10,72.9,58.7,38.6,42.3,34.1,27.1,79,45,20,30.14,30.07,4,0,9,0.00
2013-11-11,73.3,50.4,39.4,42.8,31.2,24.2,65,50,22,30.23,30.11,5,0,5,0.00
2013-11-12,69.2,54.2,43.1,47.4,37.0,29.1,74,53,31,30.29,30.19,3,0,3,0.00
2013-11-13,74.6,52.5,40.8,43.7,37.8,33.4,80,61,28,30.25,30.10,5,0,5,0.00
2013-11-14,68.1,49.7,40.7,42.6,36.6,32.1,82,63,35,30.12,29.83,5,0,5,0.00
2013-11-15,61.3,41.4,35.9,38.5,33.9,29.0,90,77,37,29.84,29.71,6,0,6,0.00
2013-11-16,57.7,43.9,34.3,35.8,31.8,28.8,81,64,38,29.95,29.76,7,0,7,0.00
2013-11-17,59.9,41.9,32.2,41.0,33.4,28.8,91,74,45,30.14,29.94,4,0,7,0.00
2013-11-18,59.0,44.7,34.4,42.7,37.0,31.0,91,76,48,30.17,30.08,11,0,15,0.00
2013-11-19,50.0,47.1,43.7,47.5,44.2,39.5,93,90,76,30.10,29.95,9,0,9,0.89
2013-11-20,49.9,47.7,44.2,48.2,46.0,42.5,94,94,93,29.95,29.83,10,0,10,0.63
2013-11-21,51.9,42.3,36.8,42.5,35.0,26.0,95,77,49,30.09,29.88,12,0,13,0.00
2013-11-22,62.4,41.4,29.6,34.1,22.9,15.0,74,51,18,30.14,30.03,12,0,16,0.00
2013-11-23,63.1,43.2,29.6,37.5,26.5,18.0,82,55,24,30.16,30.02,11,0,11,0.00
2013-11-24,57.2,38.4,28.8,39.7,31.5,23.2,91,78,48,30.32,30.16,6,0,6,0.00
2013-11-25,58.1,35.5,30.2,42.7,31.4,27.9,94,86,50,30.38,30.32,5,0,5,0.00
2013-11-26,60.1,42.8,34.3,47.1,37.2,31.7,93,82,52,30.34,30.11,2,0,2,0.00
2013-11-27,62.6,45.7,36.0,41.5,35.2,32.2,88,69,37,30.12,29.92,6,0,9,0.00
2013-11-28,62.9,45.4,36.9,44.2,35.0,32.1,84,70,36,30.13,29.93,4,0,7,0.00
2013-11-29,62.8,43.7,34.4,43.1,35.2,31.2,90,75,39,30.27,30.13,4,0,4,0.00
2013-11-30,61.6,50.2,35.5,44.2,38.4,32.3,89,67,42,30.31,30.22,1,0,4,0.32
2013-12-1,63.5,44.2,34.1,45.3,36.4,31.0,90,77,39,30.38,30.27,5,0,5,0.00
2013-12-2,59.0,41.7,35.8,44.4,36.7,33.1,91,83,50,30.29,29.89,12,0,12,0.00
2013-12-3,48.1,41.4,24.4,43.5,36.9,20.5,92,84,59,29.92,29.75,15,0,15,0.44
2013-12-4,42.3,27.5,19.8,24.0,19.0,16.1,87,73,39,30.13,29.92,6,0,6,0.00
2013-12-5,40.5,25.6,17.1,21.3,15.5,12.6,92,68,35,30.22,30.11,6,0,6,0.00
2013-12-6,37.8,27.8,20.2,27.1,20.2,14.6,90,74,52,30.25,29.98,13,0,13,0.00
2013-12-7,30.8,29.3,27.3,28.8,27.0,25.0,92,91,89,30.07,29.92,7,0,7,0.00
2013-12-8,35.1,20.1,10.9,26.9,15.3,7.7,92,82,54,30.41,30.28,4,0,4,0.11
2013-12-9,40.9,21.2,15.7,31.9,17.1,12.5,89,84,56,30.53,30.39,4,0,4,0.17
2013-12-10,46.7,28.9,18.6,33.0,22.7,15.9,98,79,42,30.53,30.29,4,0,4,0.14
2013-12-11,53.0,38.7,24.5,34.6,28.9,21.8,90,70,44,30.33,30.27,1,0,1,0.04
2013-12-12,58.6,35.5,26.7,32.2,25.9,21.8,86,71,29,30.35,30.24,4,0,4,0.00
2013-12-13,56.7,35.3,26.2,32.2,26.1,21.9,86,72,32,30.39,30.30,2,0,2,0.00
2013-12-14,57.7,36.6,26.9,35.8,28.2,22.7,85,73,34,30.48,30.38,5,0,5,0.00
2013-12-15,62.9,39.4,29.9,36.1,29.3,24.3,83,70,30,30.47,30.33,4,0,4,0.00
2013-12-16,53.4,35.2,34.2,44.8,30.4,28.9,85,83,72,30.34,30.29,0,0,0,0.00
2013-12-17,68.1,46.8,38.3,47.2,36.2,29.4,80,68,30,30.26,30.09,1,0,3,0.00
2013-12-18,57.6,43.2,38.9,47.4,33.6,29.3,81,69,52,30.09,29.71,2,0,2,0.00
2013-12-19,52.4,39.9,29.8,35.7,28.1,19.0,89,64,38,29.92,29.65,11,0,11,0.00
2013-12-20,55.6,37.5,26.7,30.7,22.5,15.1,76,57,24,30.05,29.91,5,0,5,0.01
2013-12-21,58.7,40.5,31.7,41.9,33.0,27.0,95,76,47,30.16,30.02,5,0,5,0.00
2013-12-22,63.6,43.5,33.3,43.6,35.0,28.1,83,73,42,30.34,30.15,4,0,4,0.00
2013-12-23,61.7,42.1,32.5,41.9,34.4,29.1,92,76,42,30.45,30.32,3,0,3,0.00
2013-12-24,67.2,44.4,35.1,45.2,34.6,21.0,92,71,27,30.39,30.26,2,0,2,0.00
2013-12-25,67.2,42.9,32.3,41.3,27.1,19.3,72,55,27,30.37,30.28,2,0,2,0.00
2013-12-26,66.5,42.8,32.8,42.1,29.3,22.6,75,61,25,30.34,30.26,2,0,2,0.00
2013-12-27,61.7,42.6,33.0,45.1,33.0,23.8,78,69,44,30.32,30.17,0,0,0,0.00
2013-12-28,66.0,42.6,29.4,37.0,26.1,19.3,76,55,25,30.19,30.10,3,0,3,0.00
2013-12-29,61.2,40.8,31.9,38.2,26.9,16.7,75,59,32,30.28,30.15,0,0,0,0.00
2013-12-30,62.1,36.9,32.1,41.3,25.7,22.0,76,65,25,30.32,30.26,4,0,7,0.00
2013-12-31,61.3,42.9,35.0,40.7,29.1,24.4,71,60,30,30.31,30.21,3,0,3,0.00
2014-1-1,63.5,43.3,34.8,40.6,32.3,26.1,83,67,37,30.25,30.17,1,0,1,0.00
2014-1-2,66.1,44.5,35.0,45.7,35.3,31.0,86,73,37,30.24,30.12,3,0,3,0.00